createdAt,value
2019-03-22T00:02:06.005Z,11.10
2019-03-22T00:04:34.447Z,11.10
2019-03-22T00:07:02.928Z,11.10
2019-03-22T00:09:31.448Z,11.20
2019-03-22T00:11:59.960Z,11.20
2019-03-22T00:14:28.439Z,11.20
2019-03-22T00:16:57.013Z,11.20
2019-03-22T00:19:25.531Z,11.20
2019-03-22T00:21:54.072Z,11.30
2019-03-22T00:24:22.533Z,11.30
2019-03-22T00:26:51.046Z,11.30
2019-03-22T00:29:19.516Z,11.30
2019-03-22T00:31:47.959Z,11.30
2019-03-22T00:34:16.408Z,11.40
2019-03-22T00:36:44.939Z,11.40
2019-03-22T00:39:13.383Z,11.30
2019-03-22T00:41:41.840Z,11.20
2019-03-22T00:44:10.320Z,11.30
2019-03-22T00:46:38.768Z,11.30
2019-03-22T00:49:07.213Z,11.20
2019-03-22T00:51:35.688Z,11.20
2019-03-22T00:54:04.197Z,11.20
2019-03-22T00:56:32.647Z,11.20
2019-03-22T00:59:01.129Z,11.20
2019-03-22T01:01:29.589Z,11.20
2019-03-22T01:03:58.177Z,11.30
2019-03-22T01:06:26.692Z,11.20
2019-03-22T01:08:55.211Z,11.20
2019-03-22T01:11:23.687Z,11.20
2019-03-22T01:13:52.172Z,11.20
2019-03-22T01:16:20.692Z,11.20
2019-03-22T01:18:49.143Z,11.20
2019-03-22T01:21:17.687Z,11.20
2019-03-22T01:23:46.128Z,11.20
2019-03-22T01:26:14.647Z,11.20
2019-03-22T01:28:43.119Z,11.20
2019-03-22T01:31:11.568Z,11.20
2019-03-22T01:33:40.026Z,11.20
2019-03-22T01:36:08.494Z,11.20
2019-03-22T01:38:36.939Z,11.20
2019-03-22T01:41:05.389Z,11.20
2019-03-22T01:43:33.869Z,11.10
2019-03-22T01:46:02.382Z,11.10
2019-03-22T01:48:30.904Z,11.10
2019-03-22T01:50:59.359Z,11.10
2019-03-22T01:53:27.808Z,11.10
2019-03-22T01:55:56.256Z,11.10
2019-03-22T01:58:24.731Z,11.10
2019-03-22T02:00:53.175Z,11.10
2019-03-22T02:03:21.634Z,11.00
2019-03-22T02:05:50.102Z,11.00
2019-03-22T02:08:18.551Z,11.00
2019-03-22T02:10:46.997Z,11.00
2019-03-22T02:13:15.479Z,11.10
2019-03-22T02:15:43.924Z,11.10
2019-03-22T02:18:12.378Z,11.00
2019-03-22T02:20:40.923Z,11.00
2019-03-22T02:23:09.377Z,11.10
2019-03-22T02:25:37.829Z,11.00
2019-03-22T02:28:06.368Z,11.00
2019-03-22T02:30:34.893Z,11.00
2019-03-22T02:33:03.517Z,11.00
2019-03-22T02:35:32.070Z,11.00
2019-03-22T02:38:00.590Z,11.00
2019-03-22T02:40:29.108Z,11.00
2019-03-22T02:42:57.684Z,11.00
2019-03-22T02:45:31.474Z,11.00
2019-03-22T02:47:59.929Z,11.00
2019-03-22T02:50:28.408Z,11.00
2019-03-22T02:52:56.874Z,11.00
2019-03-22T02:55:31.126Z,10.90
2019-03-22T02:57:59.608Z,10.90
2019-03-22T03:00:28.195Z,10.90
2019-03-22T03:02:56.642Z,10.90
2019-03-22T03:05:25.096Z,10.80
2019-03-22T03:07:53.610Z,10.80
2019-03-22T03:10:22.055Z,10.80
2019-03-22T03:12:50.520Z,10.80
2019-03-22T03:15:19.204Z,10.70
2019-03-22T03:17:47.664Z,10.80
2019-03-22T03:20:19.494Z,10.70
2019-03-22T03:22:48.248Z,10.70
2019-03-22T03:25:17.311Z,10.70
2019-03-22T03:27:45.930Z,10.70
2019-03-22T03:30:17.588Z,10.60
2019-03-22T03:32:46.180Z,10.60
2019-03-22T03:35:15.141Z,10.60
2019-03-22T03:37:43.699Z,10.60
2019-03-22T03:40:13.374Z,10.50
2019-03-22T03:42:41.836Z,10.50
2019-03-22T03:45:33.484Z,10.40
2019-03-22T03:48:03.358Z,10.40
2019-03-22T03:50:31.813Z,10.40
2019-03-22T03:53:00.329Z,10.40
2019-03-22T03:55:29.133Z,10.40
2019-03-22T03:57:58.021Z,10.30
2019-03-22T04:00:26.593Z,10.30
2019-03-22T04:02:55.087Z,10.20
2019-03-22T04:05:23.537Z,10.20
2019-03-22T04:07:52.924Z,10.30
2019-03-22T04:10:21.406Z,10.20
2019-03-22T04:12:49.924Z,10.20
2019-03-22T04:15:18.441Z,10.20
2019-03-22T04:17:46.973Z,10.20
2019-03-22T04:20:15.433Z,10.20
2019-03-22T04:22:43.945Z,10.20
2019-03-22T04:25:12.490Z,10.20
2019-03-22T04:27:40.925Z,10.10
2019-03-22T04:30:09.808Z,10.20
2019-03-22T04:32:38.294Z,10.10
2019-03-22T04:35:07.663Z,10.10
2019-03-22T04:37:36.174Z,10.10
2019-03-22T04:40:19.627Z,10.00
2019-03-22T04:42:48.077Z,10.00
2019-03-22T04:45:16.763Z,10.00
2019-03-22T04:47:46.276Z,10.00
2019-03-22T04:50:15.151Z,9.90
2019-03-22T04:52:43.844Z,9.90
2019-03-22T04:55:12.855Z,10.00
2019-03-22T04:57:42.828Z,9.90
2019-03-22T05:00:13.414Z,9.90
2019-03-22T05:02:42.064Z,9.90
2019-03-22T05:05:12.008Z,9.90
2019-03-22T05:07:41.293Z,9.90
2019-03-22T05:10:11.801Z,9.80
2019-03-22T05:12:41.078Z,9.90
2019-03-22T05:15:12.956Z,9.80
2019-03-22T05:17:42.560Z,9.90
2019-03-22T05:20:12.040Z,9.80
2019-03-22T05:22:41.719Z,9.90
2019-03-22T05:25:10.730Z,9.90
2019-03-22T05:27:42.376Z,9.80
2019-03-22T05:30:13.884Z,9.80
2019-03-22T05:32:42.348Z,9.90
2019-03-22T05:35:10.792Z,9.80
2019-03-22T05:37:39.229Z,9.80
2019-03-22T05:40:07.864Z,9.80
2019-03-22T05:42:36.307Z,9.80
2019-03-22T05:45:06.590Z,9.80
2019-03-22T05:47:35.063Z,9.80
2019-03-22T05:50:04.544Z,9.70
2019-03-22T05:52:32.989Z,9.70
2019-03-22T05:55:01.453Z,9.70
2019-03-22T05:57:29.899Z,9.80
2019-03-22T05:59:58.339Z,9.80
2019-03-22T06:02:26.817Z,9.80
2019-03-22T06:04:55.267Z,9.80
2019-03-22T06:07:23.724Z,9.80
2019-03-22T06:09:52.188Z,9.70
2019-03-22T06:12:20.629Z,9.70
2019-03-22T06:14:49.075Z,9.70
2019-03-22T06:17:17.559Z,9.70
2019-03-22T06:19:46.001Z,9.70
2019-03-22T06:22:14.445Z,9.70
2019-03-22T06:24:42.908Z,9.70
2019-03-22T06:27:11.427Z,9.70
2019-03-22T06:29:39.870Z,9.70
2019-03-22T06:32:08.343Z,9.70
2019-03-22T06:34:36.787Z,9.70
2019-03-22T06:37:05.235Z,9.70
2019-03-22T06:39:33.728Z,9.70
2019-03-22T06:42:03.127Z,9.70
2019-03-22T06:44:31.671Z,9.70
2019-03-22T06:47:00.142Z,9.60
2019-03-22T06:49:28.664Z,9.60
2019-03-22T06:51:57.106Z,9.70
2019-03-22T06:54:31.451Z,9.60
2019-03-22T06:56:55.832Z,9.70
2019-03-22T06:59:24.274Z,9.70
2019-03-22T07:01:52.739Z,9.60
2019-03-22T07:04:21.187Z,9.70
2019-03-22T07:06:49.635Z,9.80
2019-03-22T07:09:18.098Z,9.80
2019-03-22T07:11:46.537Z,9.70
2019-03-22T07:14:14.990Z,9.70
2019-03-22T07:16:43.458Z,9.70
2019-03-22T07:19:11.919Z,9.80
2019-03-22T07:21:40.379Z,9.80
2019-03-22T07:24:08.927Z,9.80
2019-03-22T07:26:37.377Z,9.80
2019-03-22T07:29:05.820Z,9.80
2019-03-22T07:31:35.846Z,9.80
2019-03-22T07:34:04.516Z,9.80
2019-03-22T07:36:32.957Z,9.90
2019-03-22T07:39:01.446Z,9.80
2019-03-22T07:41:29.888Z,9.80
2019-03-22T07:43:58.349Z,9.90
2019-03-22T07:46:26.824Z,9.90
2019-03-22T07:48:55.265Z,9.90
2019-03-22T07:51:23.713Z,9.90
2019-03-22T07:53:52.177Z,10.00
2019-03-22T07:56:20.623Z,10.10
2019-03-22T07:58:49.139Z,10.10
2019-03-22T08:01:17.615Z,10.10
2019-03-22T08:03:46.059Z,10.00
2019-03-22T08:06:14.512Z,10.10
2019-03-22T08:08:42.987Z,10.10
2019-03-22T08:11:11.432Z,10.10
2019-03-22T08:13:39.884Z,10.10
2019-03-22T08:16:08.369Z,10.10
2019-03-22T08:18:36.873Z,10.10
2019-03-22T08:21:05.381Z,10.10
2019-03-22T08:23:33.939Z,10.20
2019-03-22T08:26:02.375Z,10.10
2019-03-22T08:28:30.814Z,10.10
2019-03-22T08:30:59.295Z,10.10
2019-03-22T08:33:27.747Z,10.30
2019-03-22T08:35:56.196Z,10.20
2019-03-22T08:38:24.672Z,10.20
2019-03-22T08:40:53.115Z,10.20
2019-03-22T08:43:21.568Z,10.10
2019-03-22T08:45:50.077Z,10.10
2019-03-22T08:48:18.599Z,10.20
2019-03-22T08:50:47.084Z,10.30
2019-03-22T08:53:15.554Z,10.30
2019-03-22T08:55:44.000Z,10.30
2019-03-22T08:58:12.527Z,10.30
2019-03-22T09:00:41.013Z,10.30
2019-03-22T09:03:09.523Z,10.30
2019-03-22T09:05:38.048Z,10.20
2019-03-22T09:08:17.081Z,10.20
2019-03-22T09:10:45.533Z,10.30
2019-03-22T09:13:26.753Z,10.40
2019-03-22T09:15:55.256Z,10.40
2019-03-22T09:18:23.774Z,10.30
2019-03-22T09:20:52.249Z,10.30
2019-03-22T09:23:20.779Z,10.20
2019-03-22T09:25:49.217Z,10.40
2019-03-22T09:28:17.666Z,10.40
2019-03-22T09:30:46.230Z,10.40
2019-03-22T09:33:14.791Z,10.50
2019-03-22T09:35:43.380Z,10.50
2019-03-22T09:38:13.185Z,10.30
2019-03-22T09:40:41.934Z,10.40
2019-03-22T09:43:10.448Z,10.30
2019-03-22T09:45:38.997Z,10.30
2019-03-22T09:48:07.537Z,10.30
2019-03-22T09:50:36.021Z,10.30
2019-03-22T09:53:04.793Z,10.40
2019-03-22T09:55:33.311Z,10.50
2019-03-22T09:58:01.935Z,10.60
2019-03-22T10:00:32.122Z,10.60
2019-03-22T10:03:01.160Z,10.40
2019-03-22T10:05:29.676Z,10.40
2019-03-22T10:07:58.308Z,10.50
2019-03-22T10:10:26.849Z,10.60
2019-03-22T10:12:55.420Z,10.60
2019-03-22T10:15:23.994Z,10.60
2019-03-22T10:17:52.521Z,10.50
2019-03-22T10:20:21.055Z,10.60
2019-03-22T10:22:49.650Z,10.70
2019-03-22T10:25:18.097Z,10.70
2019-03-22T10:27:46.555Z,10.70
2019-03-22T10:30:16.621Z,10.70
2019-03-22T10:32:45.145Z,10.80
2019-03-22T10:35:25.554Z,10.80
2019-03-22T10:37:43.895Z,10.80
2019-03-22T10:40:12.955Z,10.80
2019-03-22T10:42:41.424Z,10.80
2019-03-22T10:45:10.166Z,10.80
2019-03-22T10:47:38.683Z,10.90
2019-03-22T10:50:08.234Z,10.80
2019-03-22T10:52:36.853Z,10.90
2019-03-22T10:55:23.419Z,10.90
2019-03-22T10:57:40.138Z,11.00
2019-03-22T11:00:13.809Z,11.00
2019-03-22T11:02:42.361Z,11.00
2019-03-22T11:05:11.541Z,11.00
2019-03-22T11:07:40.093Z,11.10
2019-03-22T11:10:12.743Z,11.30
2019-03-22T11:12:41.112Z,11.10
2019-03-22T11:15:12.303Z,11.20
2019-03-22T11:17:40.831Z,11.00
2019-03-22T11:20:14.735Z,11.20
2019-03-22T11:22:43.283Z,11.00
2019-03-22T11:25:12.263Z,11.00
2019-03-22T11:27:40.788Z,11.00
2019-03-22T11:30:12.643Z,10.90
2019-03-22T11:32:41.100Z,11.00
2019-03-22T11:35:09.891Z,11.00
2019-03-22T11:37:38.351Z,11.20
2019-03-22T11:40:09.439Z,11.20
2019-03-22T11:42:38.023Z,11.20
2019-03-22T11:45:09.509Z,11.20
2019-03-22T11:47:38.020Z,11.00
2019-03-22T11:50:08.718Z,11.20
2019-03-22T11:52:38.183Z,11.20
2019-03-22T11:55:11.369Z,11.30
2019-03-22T11:57:39.960Z,11.20
2019-03-22T12:00:17.456Z,11.30
2019-03-22T12:02:45.905Z,11.30
2019-03-22T12:05:16.090Z,11.40
2019-03-22T12:07:44.576Z,11.30
2019-03-22T12:10:20.697Z,11.30
2019-03-22T12:12:49.629Z,11.40
2019-03-22T12:15:22.715Z,11.40
2019-03-22T12:20:23.222Z,11.30
2019-03-22T12:22:52.503Z,11.50
2019-03-22T12:25:25.708Z,11.60
2019-03-22T12:27:54.284Z,11.60
2019-03-22T12:30:22.812Z,11.50
2019-03-22T12:32:51.335Z,11.40
2019-03-22T12:35:42.529Z,11.50
2019-03-22T12:38:10.860Z,11.60
2019-03-22T12:40:39.382Z,11.60
2019-03-22T12:43:07.848Z,11.60
2019-03-22T12:45:36.444Z,11.80
2019-03-22T12:48:05.341Z,11.70
2019-03-22T12:50:34.081Z,11.70
2019-03-22T12:53:02.542Z,11.80
2019-03-22T12:55:30.995Z,11.60
2019-03-22T12:57:59.635Z,11.60
2019-03-22T13:00:28.254Z,11.60
2019-03-22T13:02:56.779Z,11.70
2019-03-22T13:05:25.557Z,11.80
2019-03-22T13:07:54.007Z,11.70
2019-03-22T13:10:26.598Z,11.70
2019-03-22T13:12:55.521Z,11.70
2019-03-22T13:15:24.108Z,11.70
2019-03-22T13:18:11.944Z,11.70
2019-03-22T13:20:40.483Z,11.60
2019-03-22T13:23:08.931Z,11.60
2019-03-22T13:25:37.412Z,11.70
2019-03-22T13:28:06.012Z,11.70
2019-03-22T13:30:53.825Z,11.80
2019-03-22T13:33:22.269Z,11.90
2019-03-22T13:35:50.729Z,11.70
2019-03-22T13:38:19.203Z,11.70
2019-03-22T13:40:47.719Z,11.60
2019-03-22T13:43:16.176Z,11.60
2019-03-22T13:45:44.816Z,11.50
2019-03-22T13:48:13.269Z,11.50
2019-03-22T13:50:41.720Z,11.50
2019-03-22T13:53:10.203Z,11.60
2019-03-22T13:55:38.649Z,11.70
2019-03-22T13:58:07.180Z,11.70
2019-03-22T14:00:35.675Z,11.60
2019-03-22T14:03:04.195Z,11.70
2019-03-22T14:05:32.636Z,11.70
2019-03-22T14:08:01.107Z,11.60
2019-03-22T14:10:31.397Z,11.70
2019-03-22T14:13:04.221Z,11.70
2019-03-22T14:15:32.772Z,11.70
2019-03-22T14:18:01.359Z,11.60
2019-03-22T14:20:30.296Z,11.60
2019-03-22T14:22:58.849Z,11.70
2019-03-22T14:25:27.536Z,11.70
2019-03-22T14:27:55.976Z,11.60
2019-03-22T14:30:24.663Z,11.50
2019-03-22T14:32:53.388Z,11.70
2019-03-22T14:35:21.839Z,11.70
2019-03-22T14:37:50.308Z,11.70
2019-03-22T14:40:18.826Z,11.50
2019-03-22T14:42:47.273Z,11.60
2019-03-22T14:45:16.018Z,11.60
2019-03-22T14:47:44.472Z,11.70
2019-03-22T14:50:13.172Z,11.60
2019-03-22T14:52:41.709Z,11.50
2019-03-22T14:55:10.165Z,11.50
2019-03-22T14:57:48.399Z,11.60
2019-03-22T15:00:11.650Z,11.60
2019-03-22T15:02:46.196Z,11.50
2019-03-22T15:05:14.701Z,11.50
2019-03-22T15:07:43.422Z,11.50
2019-03-22T15:10:12.979Z,11.40
2019-03-22T15:12:41.735Z,11.50
2019-03-22T15:15:13.004Z,11.50
2019-03-22T15:17:45.599Z,11.50
2019-03-22T15:20:31.143Z,11.40
2019-03-22T15:23:01.329Z,11.40
2019-03-22T15:25:33.526Z,11.50
2019-03-22T15:28:21.452Z,11.50
2019-03-22T15:31:03.264Z,11.50
2019-03-22T15:39:35.883Z,11.50
2019-03-22T15:42:04.474Z,11.50
2019-03-22T15:44:32.921Z,11.50
2019-03-22T15:47:01.399Z,11.40
2019-03-22T15:49:29.919Z,11.30
2019-03-22T15:51:58.368Z,11.20
2019-03-22T15:54:26.914Z,11.20
2019-03-22T15:56:58.495Z,11.20
2019-03-22T15:59:27.070Z,11.20
2019-03-22T16:01:55.629Z,11.20
2019-03-22T16:04:24.358Z,11.20
2019-03-22T16:06:56.296Z,11.10
2019-03-22T16:09:27.239Z,11.20
2019-03-22T16:11:59.015Z,11.20
2019-03-22T16:14:27.672Z,11.20
2019-03-22T16:16:56.473Z,11.20
2019-03-22T16:19:26.710Z,11.20
2019-03-22T16:21:55.289Z,11.10
2019-03-22T16:24:23.802Z,11.10
2019-03-22T16:26:52.400Z,11.20
2019-03-22T16:29:21.044Z,11.20
2019-03-22T16:31:49.660Z,11.20
2019-03-22T16:34:18.217Z,11.10
2019-03-22T16:36:49.827Z,11.00
2019-03-22T16:39:22.262Z,11.10
2019-03-22T16:41:53.557Z,11.10
2019-03-22T16:44:22.129Z,11.10
2019-03-22T16:46:52.359Z,11.20
2019-03-22T16:49:20.928Z,11.10
2019-03-22T16:51:49.440Z,11.10
2019-03-22T16:54:18.060Z,11.00
2019-03-22T16:56:46.754Z,11.00
2019-03-22T16:59:15.255Z,11.10
2019-03-22T17:01:43.937Z,11.10
2019-03-22T17:04:12.456Z,11.00
2019-03-22T17:06:41.110Z,11.00
2019-03-22T17:09:09.709Z,11.00
2019-03-22T17:11:40.689Z,10.90
2019-03-22T17:14:08.432Z,11.00
2019-03-22T17:16:36.912Z,10.90
2019-03-22T17:19:05.519Z,10.90
2019-03-22T17:21:34.051Z,10.90
2019-03-22T17:24:02.622Z,10.90
2019-03-22T17:26:31.314Z,10.90
2019-03-22T17:28:59.896Z,10.90
2019-03-22T17:31:28.738Z,10.90
2019-03-22T17:33:57.443Z,10.90
2019-03-22T17:36:25.956Z,10.90
2019-03-22T17:38:56.005Z,10.90
2019-03-22T17:41:26.947Z,10.90
2019-03-22T17:43:54.708Z,10.90
2019-03-22T17:46:23.228Z,10.80
2019-03-22T17:48:51.693Z,10.90
2019-03-22T17:51:20.297Z,10.80
2019-03-22T17:53:48.874Z,10.90
2019-03-22T17:56:17.399Z,10.90
2019-03-22T17:58:45.945Z,10.90
2019-03-22T18:01:16.970Z,10.90
2019-03-22T18:03:44.721Z,10.90
2019-03-22T18:06:13.282Z,11.00
2019-03-22T18:08:41.803Z,11.00
2019-03-22T18:11:10.281Z,10.90
2019-03-22T18:13:38.745Z,10.90
2019-03-22T18:16:07.295Z,11.00
2019-03-22T18:18:35.811Z,11.00
2019-03-22T18:21:04.290Z,11.00
2019-03-22T18:23:35.890Z,11.00
2019-03-22T18:26:02.980Z,11.00
2019-03-22T18:28:31.427Z,11.00
2019-03-22T18:30:59.912Z,11.00
2019-03-22T18:33:28.372Z,11.00
2019-03-22T18:35:56.826Z,11.00
2019-03-22T18:38:25.318Z,10.90
2019-03-22T18:40:53.784Z,11.00
2019-03-22T18:43:22.227Z,11.00
2019-03-22T18:45:50.738Z,11.00
2019-03-22T18:48:19.273Z,11.00
2019-03-22T18:50:56.413Z,11.00
2019-03-22T18:53:17.938Z,11.00
2019-03-22T18:55:46.379Z,11.00
2019-03-22T18:58:14.834Z,11.00
2019-03-22T19:00:43.324Z,11.00
2019-03-22T19:03:11.783Z,11.00
2019-03-22T19:05:40.233Z,11.00
2019-03-22T19:08:08.833Z,11.00
2019-03-22T19:10:37.348Z,11.00
2019-03-22T19:13:07.770Z,11.00
2019-03-22T19:15:36.008Z,11.00
2019-03-22T19:18:26.617Z,11.00
2019-03-22T19:20:55.188Z,11.00
2019-03-22T19:23:23.710Z,11.00
2019-03-22T19:25:52.190Z,11.00
2019-03-22T19:28:23.899Z,11.00
2019-03-22T19:30:52.346Z,11.00
2019-03-22T19:33:20.884Z,11.00
2019-03-22T19:35:49.376Z,10.90
2019-03-22T19:38:17.850Z,10.90
2019-03-22T19:40:46.305Z,10.80
2019-03-22T19:43:14.783Z,10.90
2019-03-22T19:45:43.251Z,10.90
2019-03-22T19:48:11.708Z,10.90
2019-03-22T19:50:40.318Z,10.90
2019-03-22T19:53:08.970Z,10.90
2019-03-22T19:55:37.558Z,10.90
2019-03-22T19:58:06.179Z,10.90
2019-03-22T20:00:53.992Z,10.90
2019-03-22T20:03:22.476Z,10.90
2019-03-22T20:05:50.928Z,10.90
2019-03-22T20:08:19.381Z,10.90
2019-03-22T20:10:47.875Z,10.90
2019-03-22T20:13:16.333Z,11.00
2019-03-22T20:15:44.862Z,11.00
2019-03-22T20:18:13.356Z,11.00
2019-03-22T20:20:41.831Z,11.00
2019-03-22T20:23:10.280Z,11.00
2019-03-22T20:25:38.773Z,11.00
2019-03-22T20:28:16.501Z,11.00
2019-03-22T20:30:44.982Z,11.10
2019-03-22T20:33:13.432Z,11.00
2019-03-22T20:35:41.894Z,11.00
2019-03-22T20:38:11.543Z,11.10
2019-03-22T20:40:40.120Z,11.10
2019-03-22T20:43:08.585Z,11.10
2019-03-22T20:45:37.075Z,11.10
2019-03-22T20:48:05.583Z,11.10
2019-03-22T20:50:35.954Z,11.10
2019-03-22T20:53:04.374Z,11.00
2019-03-22T20:55:32.824Z,11.00
2019-03-22T20:58:01.301Z,11.10
2019-03-22T21:00:30.063Z,11.10
2019-03-22T21:02:58.596Z,11.10
2019-03-22T21:05:27.499Z,11.10
2019-03-22T21:07:56.114Z,11.10
2019-03-22T21:10:24.559Z,11.10
2019-03-22T21:12:53.180Z,11.10
2019-03-22T21:15:24.685Z,11.10
2019-03-22T21:17:55.002Z,11.10
2019-03-22T21:20:23.460Z,11.10
2019-03-22T21:22:54.864Z,11.10
2019-03-22T21:25:23.516Z,11.00
2019-03-22T21:27:52.618Z,11.10
2019-03-22T21:30:22.523Z,11.10
2019-03-22T21:32:55.159Z,11.10
2019-03-22T21:35:23.690Z,11.10
2019-03-22T21:37:52.731Z,11.10
2019-03-22T21:40:21.277Z,11.00
2019-03-22T21:42:49.828Z,11.00
2019-03-22T21:45:18.372Z,11.00
2019-03-22T21:47:46.906Z,11.00
2019-03-22T21:50:15.435Z,11.00
2019-03-22T21:52:44.041Z,11.00
2019-03-22T21:55:12.578Z,11.00
2019-03-22T21:57:41.101Z,11.00
2019-03-22T22:00:11.787Z,11.00
2019-03-22T22:02:40.313Z,11.00
2019-03-22T22:05:08.785Z,11.00
2019-03-22T22:07:37.302Z,10.90
2019-03-22T22:10:26.673Z,10.90
2019-03-22T22:12:55.150Z,10.90
2019-03-22T22:15:23.600Z,10.80
2019-03-22T22:17:52.130Z,10.80
2019-03-22T22:20:28.367Z,10.70
2019-03-22T22:22:50.783Z,10.80
2019-03-22T22:25:19.304Z,10.70
2019-03-22T22:27:47.811Z,10.80
2019-03-22T22:30:16.471Z,10.80
2019-03-22T22:32:48.893Z,10.80
2019-03-22T22:35:17.375Z,10.80
2019-03-22T22:37:45.910Z,10.80
2019-03-22T22:40:33.804Z,10.90
2019-03-22T22:43:21.591Z,10.80
2019-03-22T22:45:52.334Z,10.80
2019-03-22T22:48:20.903Z,10.70
2019-03-22T22:50:49.359Z,10.60
2019-03-22T22:53:17.886Z,10.50
2019-03-22T22:55:46.342Z,10.40
2019-03-22T22:58:14.802Z,10.20
2019-03-22T23:00:43.434Z,10.10
2019-03-22T23:03:13.001Z,10.00
2019-03-22T23:05:41.633Z,10.00
2019-03-22T23:08:11.040Z,9.90
2019-03-22T23:10:41.286Z,9.80
2019-03-22T23:13:09.923Z,9.80
2019-03-22T23:15:38.564Z,9.70
2019-03-22T23:18:10.184Z,9.60
2019-03-22T23:20:38.722Z,9.50
2019-03-22T23:23:07.249Z,9.40
2019-03-22T23:25:35.978Z,9.40
2019-03-22T23:28:04.628Z,9.40
2019-03-22T23:30:34.567Z,9.30
2019-03-22T23:33:03.157Z,9.30
2019-03-22T23:35:31.615Z,9.30
2019-03-22T23:38:00.234Z,9.30
2019-03-22T23:40:29.904Z,9.20
2019-03-22T23:42:58.376Z,9.20
2019-03-22T23:45:29.015Z,9.10
2019-03-22T23:47:59.776Z,9.10
2019-03-22T23:50:28.461Z,9.10
2019-03-22T23:52:57.042Z,9.00
2019-03-22T23:55:25.544Z,8.90
2019-03-22T23:57:55.715Z,8.90
